Hauptseite
METAR-TAF:

METAR-TAF

Flughäfen :

Flughafen Saint Brieuc

Saint-Brieuc, Frankreich

Breite: 48-32N, Länge: 002-51W, Höhe: 138 m

Beobachtung

Neuester Wetterbericht von vor 31 Minuten, um 13:00 UTC
Wind 4 kt aus Nord/Nordost, variierte zwischen West/Nordwest und Ost
Temperatur 19°C
Luftfeuchtigkeit 73%
Luftdruck 1019 hPa
Sichtweite 10 km oder mehr
Durchbrochene Bewölkung in der Höhe von 2700 ft
Durchbrochene Bewölkung in der Höhe von 3800 ft
Geschlossene Wolkendecke in der Höhe von 5600 ft

METAR: LFRT 171300Z AUTO 03004KT 300V100 9999 BKN027 BKN038 OVC056 19/14 Q1019

Zeit: 15:31 (13:31 UTC)


TAF: fehlend

Wetterbeobachtungen und Prognosen von mehr als 4000 Flughäfen (METAR und TAF Bericht).

Die verfügbaren Stationen werden durch gelbe und rote Markierungen auf der Karte dargestellt.

Führen Sie die Maus auf sie, um den Namen der Station zu sehen.

Darauf klicken, um die Beobachtung von Wetterbeobachtungen und Prognosen zu sehen.

Um die Karte zu ändern : klicken Sie auf den grünen Tasten mit einem schwarzen Kreuz Zum Vergrößern, auf den grünen Button mit einem Gedankenstrich zu verkleinern, oder auf die grünen Pfeile für benachbarte Karten.


METAR-TAF: